createdAt,value
2022-09-26T00:00:05.325Z,14.20
2022-09-26T00:02:38.890Z,14.10
2022-09-26T00:05:05.995Z,14.00
2022-09-26T00:07:32.661Z,14.00
2022-09-26T00:09:59.345Z,14.00
2022-09-26T00:12:26.135Z,13.90
2022-09-26T00:14:52.816Z,13.90
2022-09-26T00:17:19.581Z,14.00
2022-09-26T00:19:46.290Z,14.10
2022-09-26T00:22:12.986Z,14.00
2022-09-26T00:24:39.715Z,14.10
2022-09-26T00:27:06.482Z,14.20
2022-09-26T00:29:33.292Z,14.00
2022-09-26T00:32:00.065Z,14.00
2022-09-26T00:34:27.396Z,13.90
2022-09-26T00:36:54.127Z,13.90
2022-09-26T00:39:21.050Z,13.90
2022-09-26T00:41:47.812Z,13.80
2022-09-26T00:44:33.295Z,13.80
2022-09-26T00:47:00.495Z,13.70
2022-09-26T00:49:34.268Z,13.70
2022-09-26T00:52:12.445Z,13.70
2022-09-26T00:54:41.285Z,13.70
2022-09-26T00:57:10.896Z,13.70
2022-09-26T00:59:40.021Z,13.60
2022-09-26T01:02:07.124Z,13.60
2022-09-26T01:04:35.605Z,13.50
2022-09-26T01:07:06.088Z,13.50
2022-09-26T01:09:33.244Z,13.50
2022-09-26T01:12:01.196Z,13.40
2022-09-26T01:14:28.244Z,13.40
2022-09-26T01:16:55.351Z,13.30
2022-09-26T01:19:26.079Z,13.30
2022-09-26T01:22:22.349Z,13.40
2022-09-26T01:24:58.461Z,13.30
2022-09-26T01:27:31.866Z,13.30
2022-09-26T01:29:58.636Z,13.30
2022-09-26T01:32:50.433Z,13.30
2022-09-26T01:35:35.964Z,13.20
2022-09-26T01:38:11.571Z,13.20
2022-09-26T01:40:41.350Z,13.20
2022-09-26T01:43:15.289Z,13.20
2022-09-26T01:45:51.555Z,13.20
2022-09-26T01:48:21.209Z,13.20
2022-09-26T01:50:53.212Z,13.20
2022-09-26T01:53:24.111Z,13.30
2022-09-26T01:56:02.156Z,13.30
2022-09-26T01:58:33.610Z,13.40
2022-09-26T02:01:02.203Z,13.40
2022-09-26T02:03:31.724Z,13.30
2022-09-26T02:06:01.091Z,13.20
2022-09-26T02:08:31.044Z,13.00
2022-09-26T02:11:02.336Z,13.00
2022-09-26T02:13:31.546Z,13.00
2022-09-26T02:16:00.968Z,13.00
2022-09-26T02:18:33.863Z,13.00
2022-09-26T02:21:06.640Z,13.00
2022-09-26T02:23:33.356Z,13.00
2022-09-26T02:26:00.157Z,12.90
2022-09-26T02:28:26.997Z,12.90
2022-09-26T02:30:55.457Z,13.00
2022-09-26T02:33:23.439Z,13.10
2022-09-26T02:35:56.456Z,13.10
2022-09-26T02:38:28.682Z,12.90
2022-09-26T02:41:17.919Z,12.80
2022-09-26T02:44:04.054Z,12.80
2022-09-26T02:46:51.376Z,12.90
2022-09-26T02:49:32.057Z,12.80
2022-09-26T02:51:59.693Z,12.80
2022-09-26T02:54:33.023Z,12.70
2022-09-26T02:56:59.847Z,12.50
2022-09-26T02:59:33.865Z,12.50
2022-09-26T03:02:06.001Z,12.40
2022-09-26T03:04:41.549Z,12.50
2022-09-26T03:07:11.841Z,12.70
2022-09-26T03:09:39.504Z,12.60
2022-09-26T03:12:07.764Z,12.60
2022-09-26T03:14:35.520Z,12.50
2022-09-26T03:17:03.186Z,12.60
2022-09-26T03:19:34.077Z,12.50
2022-09-26T03:22:01.892Z,12.40
2022-09-26T03:24:30.017Z,12.50
2022-09-26T03:26:59.811Z,12.50
2022-09-26T03:29:26.805Z,12.50
2022-09-26T03:31:53.859Z,12.50
2022-09-26T03:34:21.186Z,12.50
2022-09-26T03:36:49.749Z,12.50
2022-09-26T03:39:17.486Z,12.30
2022-09-26T03:41:49.675Z,12.20
2022-09-26T03:44:34.413Z,12.20
2022-09-26T03:47:03.991Z,12.30
2022-09-26T03:49:31.626Z,12.20
2022-09-26T03:51:58.425Z,12.20
2022-09-26T03:54:25.341Z,12.20
2022-09-26T03:56:52.179Z,12.20
2022-09-26T03:59:19.011Z,12.20
2022-09-26T04:01:47.585Z,12.10
2022-09-26T04:04:16.301Z,12.00
2022-09-26T04:06:44.919Z,11.90
2022-09-26T04:09:16.795Z,12.00
2022-09-26T04:11:47.937Z,12.00
2022-09-26T04:14:14.736Z,12.00
2022-09-26T04:16:43.203Z,12.00
2022-09-26T04:19:22.030Z,11.90
2022-09-26T04:21:48.848Z,11.90
2022-09-26T04:24:16.276Z,11.80
2022-09-26T04:26:43.874Z,11.90
2022-09-26T04:29:10.711Z,11.80
2022-09-26T04:31:54.026Z,11.90
2022-09-26T04:34:27.481Z,11.80
2022-09-26T04:36:55.069Z,11.90
2022-09-26T04:39:22.393Z,11.90
2022-09-26T04:41:49.131Z,12.00
2022-09-26T04:44:15.936Z,12.10
2022-09-26T04:46:42.728Z,12.10
2022-09-26T04:49:11.292Z,12.20
2022-09-26T04:51:38.177Z,12.30
2022-09-26T04:54:05.107Z,12.30
2022-09-26T04:56:38.602Z,12.60
2022-09-26T04:59:07.714Z,12.90
2022-09-26T05:01:48.033Z,12.90
2022-09-26T05:04:27.292Z,12.50
2022-09-26T05:06:57.789Z,12.20
2022-09-26T05:09:30.772Z,12.00
2022-09-26T05:12:07.426Z,12.00
2022-09-26T05:14:36.703Z,12.00
2022-09-26T05:17:04.614Z,12.00
2022-09-26T05:19:32.894Z,12.00
2022-09-26T05:22:17.670Z,12.10
2022-09-26T05:25:03.383Z,12.00
2022-09-26T05:27:30.502Z,11.80
2022-09-26T05:29:57.337Z,11.70
2022-09-26T05:32:27.427Z,11.80
2022-09-26T05:34:54.276Z,11.90
2022-09-26T05:37:21.884Z,12.00
2022-09-26T05:40:08.507Z,12.00
2022-09-26T05:42:39.527Z,12.00
2022-09-26T05:45:06.612Z,12.20
2022-09-26T05:47:36.167Z,12.50
2022-09-26T05:50:09.950Z,12.60
2022-09-26T05:52:38.854Z,12.60
2022-09-26T05:55:05.980Z,12.40
2022-09-26T05:57:53.238Z,12.40
2022-09-26T06:00:22.347Z,12.50
2022-09-26T06:02:56.211Z,12.50
2022-09-26T06:05:43.019Z,12.40
2022-09-26T06:08:16.211Z,12.50
2022-09-26T06:10:45.743Z,12.50
2022-09-26T06:13:15.332Z,12.50
2022-09-26T06:15:49.983Z,12.60
2022-09-26T06:18:17.607Z,12.60
2022-09-26T06:20:44.496Z,12.70
2022-09-26T06:23:12.542Z,12.70
2022-09-26T06:25:40.616Z,12.70
2022-09-26T06:28:07.456Z,12.90
2022-09-26T06:30:36.385Z,12.90
2022-09-26T06:33:11.295Z,13.00
2022-09-26T06:36:02.249Z,13.10
2022-09-26T06:38:36.816Z,13.30
2022-09-26T06:41:05.407Z,13.50
2022-09-26T06:43:32.311Z,13.70
2022-09-26T06:46:17.783Z,13.80
2022-09-26T06:48:52.486Z,14.20
2022-09-26T06:51:21.738Z,14.40
2022-09-26T06:53:48.614Z,14.50
2022-09-26T06:56:19.999Z,14.80
2022-09-26T06:58:49.874Z,15.00
2022-09-26T07:01:19.231Z,15.10
2022-09-26T07:04:21.505Z,15.30
2022-09-26T07:07:04.526Z,15.50
2022-09-26T07:09:31.914Z,15.60
2022-09-26T07:12:28.450Z,15.70
2022-09-26T07:14:55.853Z,15.50
2022-09-26T07:17:28.733Z,15.40
2022-09-26T07:20:20.230Z,15.50
2022-09-26T07:23:13.370Z,15.40
2022-09-26T07:25:44.888Z,15.60
2022-09-26T07:28:11.897Z,15.60
2022-09-26T07:30:47.429Z,15.60
2022-09-26T07:33:27.578Z,15.80
2022-09-26T07:35:59.802Z,15.90
2022-09-26T07:38:29.912Z,16.30
2022-09-26T07:40:59.036Z,16.40
2022-09-26T07:43:50.294Z,16.60
2022-09-26T07:46:31.791Z,16.60
2022-09-26T07:49:18.213Z,17.10
2022-09-26T07:52:03.654Z,16.80
2022-09-26T07:55:09.504Z,17.00
2022-09-26T07:57:59.033Z,17.50
2022-09-26T08:00:59.155Z,17.90
2022-09-26T08:03:48.109Z,18.10
2022-09-26T08:06:27.634Z,18.10
2022-09-26T08:08:55.216Z,18.10
2022-09-26T08:11:41.850Z,18.20
2022-09-26T08:14:19.805Z,18.10
2022-09-26T08:16:58.793Z,18.30
2022-09-26T08:19:25.886Z,18.30
2022-09-26T08:21:52.593Z,18.30
2022-09-26T08:24:19.955Z,18.20
2022-09-26T08:26:56.831Z,18.40
2022-09-26T08:29:27.775Z,18.60
2022-09-26T08:31:55.401Z,18.90
2022-09-26T08:34:25.304Z,19.20
2022-09-26T08:37:11.025Z,19.40
2022-09-26T08:39:50.923Z,19.20
2022-09-26T08:42:39.066Z,19.20
2022-09-26T08:46:00.610Z,19.30
2022-09-26T08:48:43.711Z,19.30
2022-09-26T08:51:26.707Z,19.50
2022-09-26T08:54:02.652Z,19.50
2022-09-26T08:56:35.541Z,19.60
2022-09-26T08:59:04.936Z,19.90
2022-09-26T09:01:39.404Z,19.70
2022-09-26T09:04:19.579Z,19.70
2022-09-26T09:06:46.518Z,20.00
2022-09-26T09:09:15.967Z,20.00
2022-09-26T09:12:13.284Z,19.90
2022-09-26T09:15:23.600Z,20.20
2022-09-26T09:18:01.963Z,20.20
2022-09-26T09:20:56.618Z,20.10
2022-09-26T09:23:57.168Z,20.40
2022-09-26T09:29:28.111Z,20.80
2022-09-26T09:32:56.415Z,20.80
2022-09-26T09:35:39.073Z,20.70
2022-09-26T09:38:28.164Z,20.80
2022-09-26T09:41:05.535Z,21.00
2022-09-26T09:43:37.521Z,21.00
2022-09-26T09:46:05.954Z,21.00
2022-09-26T09:48:33.021Z,21.10
2022-09-26T09:51:03.278Z,21.10
2022-09-26T09:53:39.667Z,21.00
2022-09-26T09:56:15.635Z,21.00
2022-09-26T09:58:57.357Z,21.10
2022-09-26T10:01:30.765Z,21.40
2022-09-26T10:04:20.710Z,21.40
2022-09-26T10:06:48.501Z,21.40
2022-09-26T10:09:39.399Z,21.70
2022-09-26T10:12:28.806Z,21.50
2022-09-26T10:15:20.680Z,21.80
2022-09-26T10:18:24.046Z,21.80
2022-09-26T10:21:02.621Z,21.50
2022-09-26T10:23:34.100Z,21.60
2022-09-26T10:26:06.641Z,21.80
2022-09-26T10:28:44.785Z,21.70
2022-09-26T10:31:11.972Z,21.90
2022-09-26T10:34:06.804Z,22.00
2022-09-26T10:36:38.069Z,22.40
2022-09-26T10:39:34.336Z,22.60
2022-09-26T10:42:02.088Z,22.20
2022-09-26T10:44:36.726Z,22.40
2022-09-26T10:47:10.398Z,22.60
2022-09-26T10:49:59.125Z,23.00
2022-09-26T10:52:47.136Z,23.10
2022-09-26T10:55:14.000Z,22.50
2022-09-26T10:57:45.637Z,22.60
2022-09-26T11:00:21.878Z,22.90
2022-09-26T11:02:52.238Z,22.90
2022-09-26T11:05:38.904Z,22.60
2022-09-26T11:08:16.212Z,22.80
2022-09-26T11:11:04.882Z,22.60
2022-09-26T11:13:40.081Z,22.80
2022-09-26T11:16:13.450Z,23.10
2022-09-26T11:18:46.282Z,23.10
2022-09-26T11:21:31.938Z,22.90
2022-09-26T11:24:11.276Z,22.90
2022-09-26T11:26:59.921Z,22.90
2022-09-26T11:29:36.207Z,22.90
2022-09-26T11:32:12.560Z,22.90
2022-09-26T11:35:03.120Z,23.00
2022-09-26T11:37:35.175Z,23.40
2022-09-26T11:40:22.629Z,23.60
2022-09-26T11:42:54.852Z,23.70
2022-09-26T11:45:23.813Z,23.80
2022-09-26T11:48:29.396Z,24.00
2022-09-26T11:51:35.940Z,23.60
2022-09-26T11:54:07.063Z,23.60
2022-09-26T11:56:34.042Z,23.50
2022-09-26T11:59:19.753Z,23.40
2022-09-26T12:01:54.886Z,23.20
2022-09-26T12:04:29.542Z,23.50
2022-09-26T12:06:56.299Z,23.50
2022-09-26T12:09:45.306Z,23.30
2022-09-26T12:12:29.085Z,23.40
2022-09-26T12:15:02.433Z,23.10
2022-09-26T12:17:35.651Z,23.20
2022-09-26T12:20:22.764Z,23.40
2022-09-26T12:23:08.149Z,23.60
2022-09-26T12:25:43.798Z,23.70
2022-09-26T12:28:14.685Z,23.40
2022-09-26T12:30:44.256Z,23.20
2022-09-26T12:33:13.851Z,23.40
2022-09-26T12:36:00.153Z,23.90
2022-09-26T12:38:45.975Z,24.00
2022-09-26T12:41:23.055Z,23.80
2022-09-26T12:44:04.837Z,23.80
2022-09-26T12:46:34.436Z,23.60
2022-09-26T12:49:04.014Z,23.20
2022-09-26T12:51:49.657Z,23.30
2022-09-26T12:54:29.782Z,23.30
2022-09-26T12:57:17.238Z,23.40
2022-09-26T12:59:49.756Z,23.70
2022-09-26T13:02:41.568Z,23.60
2022-09-26T13:05:08.484Z,23.10
2022-09-26T13:07:41.589Z,23.00
2022-09-26T13:10:08.474Z,23.20
2022-09-26T13:12:53.829Z,23.10
2022-09-26T13:15:24.506Z,23.10
2022-09-26T13:17:54.558Z,23.40
2022-09-26T13:20:32.048Z,23.40
2022-09-26T13:23:05.229Z,23.50
2022-09-26T13:25:49.260Z,23.50
2022-09-26T13:28:20.865Z,23.40
2022-09-26T13:30:58.092Z,23.50
2022-09-26T13:34:04.181Z,23.60
2022-09-26T13:36:32.499Z,23.90
2022-09-26T13:39:04.930Z,24.00
2022-09-26T13:41:43.694Z,24.10
2022-09-26T13:44:23.180Z,24.00
2022-09-26T13:46:50.260Z,23.60
2022-09-26T13:49:31.085Z,23.70
2022-09-26T13:52:06.726Z,23.50
2022-09-26T13:54:45.621Z,23.20
2022-09-26T13:57:31.805Z,23.00
2022-09-26T13:59:58.700Z,22.80
2022-09-26T14:02:29.247Z,22.70
2022-09-26T14:05:02.317Z,22.50
2022-09-26T14:08:00.005Z,22.40
2022-09-26T14:10:40.524Z,22.20
2022-09-26T14:13:10.275Z,22.30
2022-09-26T14:15:49.387Z,22.30
2022-09-26T14:18:16.379Z,22.30
2022-09-26T14:20:52.330Z,22.50
2022-09-26T14:23:39.205Z,22.80
2022-09-26T14:26:18.286Z,22.60
2022-09-26T14:28:52.954Z,22.50
2022-09-26T14:31:23.603Z,22.40
2022-09-26T14:34:03.633Z,22.30
2022-09-26T14:36:32.267Z,22.30
2022-09-26T14:38:59.406Z,22.30
2022-09-26T14:41:28.553Z,22.50
2022-09-26T14:44:00.118Z,22.50
2022-09-26T14:46:27.868Z,22.50
2022-09-26T14:48:57.027Z,22.40
2022-09-26T14:51:28.540Z,22.30
2022-09-26T14:54:00.293Z,22.20
2022-09-26T14:56:29.844Z,22.20
2022-09-26T14:59:19.343Z,22.40
2022-09-26T15:01:46.587Z,22.40
2022-09-26T15:04:18.716Z,22.30
2022-09-26T15:06:50.725Z,22.40
2022-09-26T15:09:22.306Z,22.60
2022-09-26T15:11:54.551Z,22.80
2022-09-26T15:14:21.387Z,22.80
2022-09-26T15:16:50.484Z,22.50
2022-09-26T15:19:21.029Z,22.40
2022-09-26T15:22:12.722Z,22.30
2022-09-26T15:24:39.591Z,22.40
2022-09-26T15:27:11.689Z,22.50
2022-09-26T15:29:51.931Z,22.70
2022-09-26T15:32:28.948Z,22.90
2022-09-26T15:34:56.624Z,23.00
2022-09-26T15:37:24.755Z,23.20
2022-09-26T15:39:51.807Z,23.30
2022-09-26T15:42:38.261Z,23.50
2022-09-26T15:45:16.786Z,23.30
2022-09-26T15:47:43.728Z,23.30
2022-09-26T15:50:10.648Z,23.40
2022-09-26T15:52:40.299Z,23.40
2022-09-26T15:55:07.960Z,23.40
2022-09-26T15:57:35.067Z,23.20
2022-09-26T16:00:02.413Z,23.00
2022-09-26T16:02:32.764Z,23.00
2022-09-26T16:04:59.971Z,22.80
2022-09-26T16:07:28.007Z,22.60
2022-09-26T16:09:56.144Z,22.40
2022-09-26T16:12:24.389Z,22.30
2022-09-26T16:14:58.415Z,22.10
2022-09-26T16:17:32.463Z,22.10
2022-09-26T16:20:04.390Z,22.10
2022-09-26T16:22:36.497Z,21.90
2022-09-26T16:25:19.456Z,21.80
2022-09-26T16:27:47.441Z,21.70
2022-09-26T16:30:27.187Z,21.60
2022-09-26T16:33:03.288Z,21.50
2022-09-26T16:35:31.289Z,21.30
2022-09-26T16:38:07.368Z,21.10
2022-09-26T16:40:35.104Z,21.00
2022-09-26T16:43:24.120Z,20.90
2022-09-26T16:46:09.176Z,20.80
2022-09-26T16:48:40.660Z,20.70
2022-09-26T16:51:13.631Z,20.60
2022-09-26T16:53:42.599Z,20.50
2022-09-26T16:56:12.090Z,20.40
2022-09-26T16:58:41.090Z,20.30
2022-09-26T17:01:27.658Z,20.20
2022-09-26T17:03:55.904Z,20.00
2022-09-26T17:06:22.748Z,19.90
2022-09-26T17:08:49.560Z,19.80
2022-09-26T17:11:16.765Z,19.60
2022-09-26T17:13:43.913Z,19.40
2022-09-26T17:16:10.857Z,19.40
2022-09-26T17:18:37.831Z,19.20
2022-09-26T17:21:05.058Z,19.00
2022-09-26T17:23:42.103Z,18.80
2022-09-26T17:26:18.130Z,18.70
2022-09-26T17:28:45.507Z,18.60
2022-09-26T17:31:19.060Z,18.40
2022-09-26T17:33:47.319Z,18.40
2022-09-26T17:36:19.594Z,18.40
2022-09-26T17:38:46.742Z,18.30
2022-09-26T17:41:13.616Z,18.20
2022-09-26T17:43:40.496Z,18.10
2022-09-26T17:46:15.158Z,18.10
2022-09-26T17:48:43.448Z,18.00
2022-09-26T17:51:14.363Z,18.00
2022-09-26T17:53:49.531Z,18.00
2022-09-26T17:56:17.259Z,18.00
2022-09-26T17:58:44.540Z,18.00
2022-09-26T18:01:33.502Z,17.90
2022-09-26T18:04:03.802Z,17.90
2022-09-26T18:06:32.747Z,17.90
2022-09-26T18:09:05.250Z,17.80
2022-09-26T18:11:34.420Z,17.80
2022-09-26T18:14:02.681Z,17.70
2022-09-26T18:16:29.454Z,17.70
2022-09-26T18:18:56.432Z,17.70
2022-09-26T18:21:24.278Z,17.60
2022-09-26T18:23:59.520Z,17.60
2022-09-26T18:26:26.364Z,17.70
2022-09-26T18:28:54.780Z,17.70
2022-09-26T18:31:24.440Z,17.60
2022-09-26T18:33:51.498Z,17.60
2022-09-26T18:36:18.611Z,17.50
2022-09-26T18:38:45.486Z,17.60
2022-09-26T18:41:14.492Z,17.60
2022-09-26T18:43:42.885Z,17.50
2022-09-26T18:46:16.186Z,17.40
2022-09-26T18:48:43.515Z,17.50
2022-09-26T18:51:10.823Z,17.40
2022-09-26T18:53:40.636Z,17.50
2022-09-26T18:56:26.648Z,17.60
2022-09-26T18:58:53.533Z,17.60
2022-09-26T19:01:23.589Z,17.70
2022-09-26T19:03:50.755Z,17.60
2022-09-26T19:06:19.781Z,17.60
2022-09-26T19:08:47.896Z,17.60
2022-09-26T19:11:16.365Z,17.50
2022-09-26T19:13:44.319Z,17.50
2022-09-26T19:16:11.651Z,17.60
2022-09-26T19:18:38.910Z,17.70
2022-09-26T19:21:08.030Z,17.70
2022-09-26T19:23:35.881Z,17.70
2022-09-26T19:26:04.910Z,17.70
2022-09-26T19:28:33.266Z,17.70
2022-09-26T19:31:00.987Z,17.60
2022-09-26T19:33:27.983Z,17.60
2022-09-26T19:35:55.096Z,17.60
2022-09-26T19:38:23.482Z,17.70
2022-09-26T19:40:53.884Z,17.80
2022-09-26T19:43:21.723Z,17.90
2022-09-26T19:45:52.087Z,18.00
2022-09-26T19:48:20.929Z,17.80
2022-09-26T19:50:48.459Z,17.60
2022-09-26T19:53:16.895Z,17.50
2022-09-26T19:55:44.230Z,17.40
2022-09-26T19:58:12.445Z,17.30
2022-09-26T20:00:43.142Z,17.40
2022-09-26T20:03:25.428Z,17.40
2022-09-26T20:05:52.408Z,17.40
2022-09-26T20:08:21.915Z,17.30
2022-09-26T20:10:49.643Z,17.40
2022-09-26T20:13:16.885Z,17.30
2022-09-26T20:15:44.410Z,17.40
2022-09-26T20:18:12.984Z,17.40
2022-09-26T20:20:39.851Z,17.40
2022-09-26T20:23:13.076Z,17.50
2022-09-26T20:25:40.189Z,17.50
2022-09-26T20:28:06.982Z,17.50
2022-09-26T20:30:51.825Z,17.40
2022-09-26T20:33:21.962Z,17.40
2022-09-26T20:36:04.244Z,17.30
2022-09-26T20:38:34.200Z,17.20
2022-09-26T20:41:02.694Z,17.20
2022-09-26T20:43:31.616Z,17.30
2022-09-26T20:45:58.669Z,17.40
2022-09-26T20:48:26.835Z,17.30
2022-09-26T20:50:54.773Z,17.30
2022-09-26T20:53:23.055Z,17.40
2022-09-26T20:55:50.177Z,17.40
2022-09-26T20:58:16.999Z,17.30
2022-09-26T21:00:44.014Z,17.20
2022-09-26T21:03:15.931Z,17.20
2022-09-26T21:05:43.447Z,17.20
2022-09-26T21:08:14.587Z,17.10
2022-09-26T21:10:42.065Z,17.20
2022-09-26T21:13:09.015Z,17.10
2022-09-26T21:15:35.905Z,17.00
2022-09-26T21:18:02.799Z,16.90
2022-09-26T21:20:31.207Z,16.80
2022-09-26T21:23:15.885Z,16.60
2022-09-26T21:25:43.265Z,16.50
2022-09-26T21:28:16.041Z,16.00
2022-09-26T21:30:43.451Z,15.90
2022-09-26T21:33:13.331Z,16.10
2022-09-26T21:35:40.509Z,16.30
2022-09-26T21:38:07.330Z,16.40
2022-09-26T21:40:37.358Z,16.30
2022-09-26T21:43:07.949Z,16.30
2022-09-26T21:45:34.737Z,16.10
2022-09-26T21:48:01.703Z,16.10
2022-09-26T21:50:28.941Z,15.90
2022-09-26T21:53:04.317Z,15.30
2022-09-26T21:55:33.774Z,15.10
2022-09-26T21:58:02.246Z,14.90
2022-09-26T22:00:29.016Z,14.50
2022-09-26T22:02:58.432Z,14.30
2022-09-26T22:05:25.479Z,14.20
2022-09-26T22:07:52.282Z,14.50
2022-09-26T22:10:19.290Z,14.70
2022-09-26T22:12:46.107Z,14.80
2022-09-26T22:15:12.893Z,14.90
2022-09-26T22:17:39.664Z,14.80
2022-09-26T22:20:06.598Z,14.70
2022-09-26T22:22:33.376Z,14.80
2022-09-26T22:25:04.138Z,14.80
2022-09-26T22:27:31.646Z,14.80
2022-09-26T22:29:58.472Z,15.00
2022-09-26T22:32:25.353Z,15.00
2022-09-26T22:34:52.189Z,14.90
2022-09-26T22:37:19.016Z,15.00
2022-09-26T22:39:46.374Z,15.00
2022-09-26T22:42:13.191Z,15.00
2022-09-26T22:44:39.976Z,15.10
2022-09-26T22:47:06.762Z,15.00
2022-09-26T22:49:33.615Z,15.00
2022-09-26T22:52:00.499Z,15.00
2022-09-26T22:54:27.350Z,15.00
2022-09-26T22:56:54.362Z,15.00
2022-09-26T22:59:21.142Z,15.00
2022-09-26T23:01:48.381Z,14.90
2022-09-26T23:04:15.309Z,14.80
2022-09-26T23:06:42.080Z,14.80
2022-09-26T23:09:09.022Z,15.00
2022-09-26T23:11:35.870Z,14.90
2022-09-26T23:14:02.680Z,14.80
2022-09-26T23:16:29.508Z,14.80
2022-09-26T23:18:57.201Z,14.90
2022-09-26T23:21:25.588Z,14.70
2022-09-26T23:23:55.026Z,14.60
2022-09-26T23:26:23.766Z,14.60
2022-09-26T23:28:51.244Z,14.50
2022-09-26T23:31:18.822Z,14.50
2022-09-26T23:33:45.707Z,14.70
2022-09-26T23:36:12.597Z,14.70
2022-09-26T23:38:40.271Z,14.80
2022-09-26T23:41:09.275Z,14.70
2022-09-26T23:43:36.290Z,14.60
2022-09-26T23:46:03.619Z,14.50
2022-09-26T23:48:30.485Z,14.50
2022-09-26T23:50:57.711Z,14.40
2022-09-26T23:53:24.825Z,14.30
2022-09-26T23:55:51.785Z,14.20
2022-09-26T23:58:18.936Z,14.20
